Time;durP1;ratioP1;P1;durP2;ratioP2;P2;SDS_P1;SDS_P2;PMS_P1;PMS_P2;Temp;Humidity;BMP_temperature;BMP_pressure;BME280_temperature;BME280_humidity;BME280_pressure;Samples;Min_cycle;Max_cycle;Signal;HPM_P1;HPM_P2
2022/02/26 00:01:06;;;;;;;57.40;24.55;;;;;;;-0.47;69.02;99189.38;5076639;28;20035;-76
2022/02/26 00:03:33;;;;;;;53.30;23.33;;;;;;;-0.45;68.89;99190.00;5099406;27;20032;-75
2022/02/26 00:05:58;;;;;;;60.72;24.40;;;;;;;-0.40;68.58;99192.94;5087128;28;20040;-76
2022/02/26 00:08:24;;;;;;;64.07;25.80;;;;;;;-0.38;68.77;99195.41;5087660;28;20032;-76
2022/02/26 00:10:49;;;;;;;62.03;25.95;;;;;;;-0.36;68.49;99204.94;5084504;28;20034;-76
2022/02/26 00:13:15;;;;;;;59.45;24.83;;;;;;;-0.35;68.69;99206.63;5085500;28;20057;-76
2022/02/26 00:15:40;;;;;;;55.03;23.50;;;;;;;-0.31;68.66;99212.41;5086269;28;20036;-76
2022/02/26 00:18:06;;;;;;;57.03;25.60;;;;;;;-0.27;68.03;99218.25;5085194;28;20059;-76
2022/02/26 00:20:32;;;;;;;60.50;25.38;;;;;;;-0.26;67.95;99214.50;5076344;28;20038;-76
2022/02/26 00:22:58;;;;;;;57.53;22.73;;;;;;;-0.24;67.93;99207.03;5078293;27;20034;-76
2022/02/26 00:25:23;;;;;;;51.17;22.38;;;;;;;-0.20;67.93;99219.88;5084568;28;20379;-77
2022/02/26 00:27:49;;;;;;;53.88;24.00;;;;;;;-0.16;67.54;99221.13;5084484;28;20442;-77
2022/02/26 00:30:16;;;;;;;57.72;24.05;;;;;;;-0.15;67.68;99219.25;5086176;28;20035;-75
2022/02/26 00:32:41;;;;;;;56.50;24.48;;;;;;;-0.15;67.51;99221.94;5090555;28;20405;-75
2022/02/26 00:35:07;;;;;;;51.53;23.75;;;;;;;-0.12;67.54;99229.63;5109287;28;20023;-73
2022/02/26 00:37:32;;;;;;;56.78;23.50;;;;;;;-0.12;67.31;99226.94;5108831;27;20102;-73
2022/02/26 00:39:58;;;;;;;59.45;24.60;;;;;;;-0.10;66.94;99241.03;5109512;28;20093;-72
2022/02/26 00:42:23;;;;;;;63.47;25.13;;;;;;;-0.11;67.08;99243.97;5107042;27;20020;-71
2022/02/26 00:44:48;;;;;;;56.33;23.10;;;;;;;-0.10;67.17;99238.34;5107437;28;20051;-70
2022/02/26 00:47:14;;;;;;;63.15;25.17;;;;;;;-0.08;66.77;99248.94;5108921;28;20023;-70
2022/02/26 00:49:48;;;;;;;63.28;24.27;;;;;;;-0.07;66.89;99245.22;5108654;28;20028;-72
2022/02/26 00:52:18;;;;;;;107.43;34.17;;;;;;;-0.04;67.24;99245.59;5107823;27;20035;-70
2022/02/26 00:54:44;;;;;;;98.80;32.33;;;;;;;-0.02;67.01;99242.72;5107920;27;20119;-73
2022/02/26 00:57:10;;;;;;;100.72;30.38;;;;;;;-0.03;67.00;99249.97;5106387;28;20146;-70
2022/02/26 00:59:35;;;;;;;64.68;24.05;;;;;;;-0.04;66.62;99245.59;5106484;28;20498;-71
2022/02/26 01:02:01;;;;;;;51.47;20.52;;;;;;;-0.05;66.89;99246.66;5108045;28;20026;-71
2022/02/26 01:04:26;;;;;;;56.78;22.25;;;;;;;-0.02;67.01;99248.13;5107727;28;20020;-72
2022/02/26 01:06:52;;;;;;;59.67;23.83;;;;;;;-0.02;66.53;99248.13;5107261;28;20032;-71
2022/02/26 01:09:18;;;;;;;56.75;24.27;;;;;;;-0.03;66.61;99251.84;5111357;28;20102;-70
2022/02/26 01:11:43;;;;;;;57.22;23.70;;;;;;;-0.04;66.54;99245.59;5110953;27;20038;-70
2022/02/26 01:14:09;;;;;;;58.92;24.02;;;;;;;-0.05;66.33;99245.84;5114414;27;20032;-72
2022/02/26 01:16:36;;;;;;;58.83;22.70;;;;;;;-0.10;66.38;99246.44;5090616;28;20026;-69
2022/02/26 01:19:04;;;;;;;50.17;20.67;;;;;;;-0.13;66.17;99252.25;5114092;28;20035;-70
2022/02/26 01:21:30;;;;;;;54.38;22.50;;;;;;;-0.18;66.47;99250.16;5111548;27;20027;-69
2022/02/26 01:23:56;;;;;;;48.78;19.60;;;;;;;-0.17;66.68;99245.59;5114599;27;20608;-69
2022/02/26 01:26:22;;;;;;;84.78;27.50;;;;;;;-0.18;66.50;99252.03;5113676;28;20035;-69
2022/02/26 01:28:48;;;;;;;133.90;34.78;;;;;;;-0.22;66.29;99248.09;5113986;28;20046;-73
2022/02/26 01:31:14;;;;;;;149.45;36.97;;;;;;;-0.19;66.22;99253.06;5114278;27;20034;-73
2022/02/26 01:33:39;;;;;;;130.45;31.77;;;;;;;-0.17;66.95;99249.13;5113584;28;20020;-73
2022/02/26 01:36:05;;;;;;;124.55;34.72;;;;;;;-0.13;66.38;99254.94;5114362;27;20028;-73
2022/02/26 01:38:33;;;;;;;109.60;32.97;;;;;;;-0.13;66.50;99251.41;5113856;28;20037;-73
2022/02/26 01:40:59;;;;;;;106.13;31.13;;;;;;;-0.16;66.35;99249.94;5112839;27;20031;-73
2022/02/26 01:43:25;;;;;;;97.53;29.85;;;;;;;-0.20;65.82;99249.53;5115281;27;20027;-73
2022/02/26 01:45:51;;;;;;;82.90;27.70;;;;;;;-0.25;66.22;99251.22;5116046;27;20042;-73
2022/02/26 01:48:17;;;;;;;67.55;25.00;;;;;;;-0.34;65.66;99251.41;5114187;27;20053;-73
2022/02/26 01:50:42;;;;;;;61.28;23.65;;;;;;;-0.42;65.90;99258.88;5113767;28;20418;-73
2022/02/26 01:53:07;;;;;;;59.42;23.35;;;;;;;-0.49;65.89;99259.69;5114709;28;20046;-73
2022/02/26 01:55:33;;;;;;;62.03;25.23;;;;;;;-0.51;66.13;99252.81;5114750;28;20011;-73
2022/02/26 01:57:59;;;;;;;59.55;25.80;;;;;;;-0.50;66.02;99254.47;5114016;28;20044;-73
2022/02/26 02:00:25;;;;;;;66.13;27.60;;;;;;;-0.51;66.10;99259.03;5110844;28;20071;-73
2022/02/26 02:02:53;;;;;;;58.30;25.63;;;;;;;-0.60;66.11;99258.38;5113786;28;20027;-73
2022/02/26 02:05:18;;;;;;;57.28;23.98;;;;;;;-0.68;66.09;99263.97;5113735;28;20032;-74
2022/02/26 02:07:44;;;;;;;66.93;25.55;;;;;;;-0.75;65.99;99263.13;5113466;28;20460;-73
2022/02/26 02:10:10;;;;;;;60.30;24.40;;;;;;;-0.73;66.44;99261.06;5113743;28;20072;-73
2022/02/26 02:12:36;;;;;;;56.80;24.00;;;;;;;-0.77;66.16;99259.81;5114493;28;20027;-73
2022/02/26 02:15:03;;;;;;;51.78;23.15;;;;;;;-0.91;65.85;99251.66;5114457;28;20139;-72
2022/02/26 02:17:28;;;;;;;55.50;23.73;;;;;;;-1.05;65.69;99250.78;5114854;28;20024;-73
2022/02/26 02:19:54;;;;;;;48.90;22.45;;;;;;;-1.12;65.93;99249.09;5113784;28;20050;-73
2022/02/26 02:22:20;;;;;;;54.03;23.20;;;;;;;-1.18;65.99;99250.72;5109784;28;20384;-73
2022/02/26 02:24:47;;;;;;;41.92;18.90;;;;;;;-1.21;65.74;99251.13;5109977;28;20134;-73
2022/02/26 02:27:14;;;;;;;46.28;20.48;;;;;;;-1.25;66.09;99253.38;5111134;28;20023;-73
2022/02/26 02:29:40;;;;;;;47.42;20.23;;;;;;;-1.29;66.20;99257.50;5109923;28;20492;-73
2022/02/26 02:32:07;;;;;;;48.05;20.73;;;;;;;-1.34;66.25;99265.34;5109493;28;20027;-74
2022/02/26 02:34:33;;;;;;;44.60;19.00;;;;;;;-1.36;66.29;99267.41;5111531;28;20050;-74
2022/02/26 02:36:59;;;;;;;42.67;18.80;;;;;;;-1.38;66.00;99264.91;5111241;28;20051;-73
2022/02/26 02:39:24;;;;;;;42.80;18.75;;;;;;;-1.38;66.32;99264.06;5111072;28;20019;-73
2022/02/26 02:41:50;;;;;;;43.88;18.67;;;;;;;-1.42;66.17;99270.88;5111027;28;20020;-73
2022/02/26 02:44:15;;;;;;;45.60;18.75;;;;;;;-1.44;66.39;99268.41;5110861;28;20020;-73
2022/02/26 02:46:42;;;;;;;45.53;18.75;;;;;;;-1.45;66.54;99269.44;5108937;28;20035;-73
2022/02/26 02:49:08;;;;;;;49.92;19.60;;;;;;;-1.50;66.27;99264.66;5110857;28;20030;-72
2022/02/26 02:51:33;;;;;;;47.65;19.48;;;;;;;-1.51;66.68;99268.38;5109355;28;20027;-73
2022/02/26 02:53:59;;;;;;;44.90;19.02;;;;;;;-1.51;66.60;99273.75;5110901;28;20372;-73
2022/02/26 02:56:24;;;;;;;45.75;20.20;;;;;;;-1.50;66.46;99282.63;5110335;28;20062;-72
2022/02/26 02:58:50;;;;;;;49.67;21.85;;;;;;;-1.52;66.66;99279.31;5110274;28;20036;-73
2022/02/26 03:01:16;;;;;;;49.38;20.90;;;;;;;-1.53;66.66;99281.19;5109958;28;20523;-72
2022/02/26 03:03:41;;;;;;;43.15;18.60;;;;;;;-1.52;66.61;99280.16;5110776;28;20061;-73
2022/02/26 03:06:06;;;;;;;40.30;17.67;;;;;;;-1.50;66.63;99282.63;5109683;28;20623;-72
2022/02/26 03:08:32;;;;;;;33.35;13.88;;;;;;;-1.50;66.50;99286.19;5110605;28;20015;-73
2022/02/26 03:10:58;;;;;;;32.55;13.98;;;;;;;-1.48;66.52;99277.91;5109355;28;20111;-73
2022/02/26 03:13:27;;;;;;;33.42;14.50;;;;;;;-1.48;66.28;99282.47;5109927;28;20116;-73
2022/02/26 03:15:53;;;;;;;31.08;13.70;;;;;;;-1.50;66.46;99282.63;5110374;28;20031;-73
2022/02/26 03:18:21;;;;;;;34.50;15.93;;;;;;;-1.50;66.38;99282.63;5110518;28;20024;-73
2022/02/26 03:20:47;;;;;;;33.72;13.50;;;;;;;-1.50;66.40;99278.09;5110316;28;20019;-73
2022/02/26 03:23:13;;;;;;;34.38;15.32;;;;;;;-1.50;66.54;99291.56;5110183;28;20046;-73
2022/02/26 03:25:39;;;;;;;31.20;13.70;;;;;;;-1.51;66.34;99287.19;5109655;28;20039;-73
2022/02/26 03:28:05;;;;;;;28.17;13.35;;;;;;;-1.51;66.73;99279.13;5109830;28;20077;-73
2022/02/26 03:30:31;;;;;;;28.60;12.05;;;;;;;-1.48;66.77;99285.97;5108747;28;20068;-73
2022/02/26 03:32:56;;;;;;;29.27;13.20;;;;;;;-1.46;66.59;99293.84;5109816;28;20027;-72
2022/02/26 03:35:22;;;;;;;29.90;12.52;;;;;;;-1.41;66.78;99297.59;5110031;28;20023;-71
2022/02/26 03:37:48;;;;;;;28.88;12.95;;;;;;;-1.35;66.34;99298.66;5110457;28;20028;-71
2022/02/26 03:40:14;;;;;;;25.42;13.00;;;;;;;-1.32;66.75;99300.97;5107583;28;20032;-71
2022/02/26 03:42:40;;;;;;;28.50;15.93;;;;;;;-1.28;66.66;99301.41;5108899;28;20061;-71
2022/02/26 03:45:07;;;;;;;29.40;13.27;;;;;;;-1.27;66.23;99300.38;5109695;28;20019;-72
2022/02/26 03:47:33;;;;;;;29.00;13.20;;;;;;;-1.27;66.37;99301.19;5108851;28;20028;-71
2022/02/26 03:49:58;;;;;;;29.65;13.48;;;;;;;-1.30;66.35;99306.97;5109984;28;20058;-72
2022/02/26 03:52:24;;;;;;;27.30;12.32;;;;;;;-1.30;66.03;99308.84;5109555;28;20028;-71
2022/02/26 03:54:49;;;;;;;25.70;12.23;;;;;;;-1.32;66.00;99308.22;5110721;28;20059;-71
2022/02/26 03:57:15;;;;;;;25.05;10.38;;;;;;;-1.31;65.84;99315.25;5110162;28;20044;-71
2022/02/26 03:59:41;;;;;;;20.08;9.55;;;;;;;-1.30;66.14;99311.56;5110604;28;20486;-70
2022/02/26 04:02:07;;;;;;;22.38;10.27;;;;;;;-1.27;66.22;99313.84;5109630;28;20031;-70
2022/02/26 04:04:36;;;;;;;25.30;10.27;;;;;;;-1.23;66.11;99315.94;5110867;28;20032;-71
2022/02/26 04:07:03;;;;;;;23.33;10.93;;;;;;;-1.16;66.27;99321.34;5110615;28;20027;-70
2022/02/26 04:09:28;;;;;;;19.60;9.40;;;;;;;-1.07;66.40;99327.41;5109660;28;20490;-71
2022/02/26 04:11:54;;;;;;;20.88;10.52;;;;;;;-0.97;66.33;99319.78;5110962;28;20028;-71
2022/02/26 04:14:19;;;;;;;20.35;8.95;;;;;;;-0.86;66.19;99312.19;5110936;28;20464;-71
2022/02/26 04:16:45;;;;;;;30.67;15.95;;;;;;;-0.75;66.13;99323.19;5110831;28;20437;-71
2022/02/26 04:19:10;;;;;;;52.20;27.65;;;;;;;-0.80;65.97;99328.34;5110734;28;20031;-71
2022/02/26 04:21:36;;;;;;;43.50;23.83;;;;;;;-0.87;65.99;99323.97;5110161;28;20035;-71
2022/02/26 04:24:02;;;;;;;61.13;26.95;;;;;;;-0.96;65.69;99332.22;5110051;28;20031;-71
2022/02/26 04:26:27;;;;;;;56.47;28.20;;;;;;;-0.95;65.88;99336.56;5110810;28;20116;-71
2022/02/26 04:28:55;;;;;;;59.05;27.20;;;;;;;-0.88;66.12;99346.56;5110927;28;20051;-71
2022/02/26 04:31:22;;;;;;;52.17;25.10;;;;;;;-0.84;65.90;99345.97;5088638;28;20463;-72
2022/02/26 04:33:48;;;;;;;42.65;20.92;;;;;;;-0.74;66.18;99342.91;5110702;28;20476;-72
2022/02/26 04:36:14;;;;;;;48.55;21.67;;;;;;;-0.64;66.04;99354.16;5110520;28;20019;-71
2022/02/26 04:38:40;;;;;;;47.17;20.90;;;;;;;-0.57;65.94;99361.41;5109635;28;20057;-71
2022/02/26 04:41:06;;;;;;;54.83;24.50;;;;;;;-0.56;65.77;99358.53;5109827;28;20030;-71
2022/02/26 04:43:33;;;;;;;48.70;22.27;;;;;;;-0.48;66.09;99358.34;5109431;28;20486;-71
2022/02/26 04:45:59;;;;;;;42.45;19.85;;;;;;;-0.38;66.17;99357.97;5109914;28;20455;-72
2022/02/26 04:48:25;;;;;;;40.80;20.60;;;;;;;-0.29;65.85;99364.00;5106764;28;20028;-72
2022/02/26 04:50:50;;;;;;;42.00;18.15;;;;;;;-0.30;65.95;99365.03;5109178;28;20039;-71
2022/02/26 04:53:16;;;;;;;55.10;23.85;;;;;;;-0.25;65.96;99373.34;5089983;28;20032;-71
2022/02/26 04:55:42;;;;;;;58.25;23.75;;;;;;;-0.18;65.96;99373.34;5110276;28;20023;-71
2022/02/26 04:58:09;;;;;;;63.65;24.55;;;;;;;-0.09;65.84;99388.31;5110156;28;20035;-71
2022/02/26 05:00:34;;;;;;;51.38;21.20;;;;;;;-0.03;66.05;99390.22;5109480;28;20106;-71
2022/02/26 05:03:00;;;;;;;55.03;20.67;;;;;;;0.04;66.02;99392.09;5109752;28;20555;-71
2022/02/26 05:05:26;;;;;;;41.75;19.25;;;;;;;0.02;65.23;99391.47;5110203;28;20118;-71
2022/02/26 05:07:51;;;;;;;41.00;18.75;;;;;;;0.04;65.60;99398.31;5109482;28;20066;-72
2022/02/26 05:10:17;;;;;;;50.17;20.75;;;;;;;0.03;65.22;99406.59;5109733;28;20106;-71
2022/02/26 05:12:42;;;;;;;190.13;48.05;;;;;;;-0.03;65.58;99413.66;5109493;28;20024;-71
2022/02/26 05:15:08;;;;;;;68.13;23.80;;;;;;;-0.12;64.99;99414.88;5089350;28;20020;-71
2022/02/26 05:17:34;;;;;;;64.55;23.98;;;;;;;-0.24;64.89;99420.03;5110178;28;20051;-72
2022/02/26 05:20:00;;;;;;;49.45;20.23;;;;;;;-0.31;65.22;99425.38;5106456;28;20800;-71
2022/02/26 05:22:25;;;;;;;56.65;20.70;;;;;;;-0.32;65.35;99438.03;5110232;28;20028;-72
2022/02/26 05:24:51;;;;;;;54.47;20.73;;;;;;;-0.37;65.11;99432.41;5112377;28;20028;-72
2022/02/26 05:27:17;;;;;;;66.13;25.10;;;;;;;-0.44;65.07;99441.50;5094323;28;20035;-73
2022/02/26 05:29:42;;;;;;;74.82;28.25;;;;;;;-0.51;65.09;99445.00;5112777;28;20028;-71
2022/02/26 05:32:08;;;;;;;70.97;28.27;;;;;;;-0.57;65.31;99461.09;5113418;28;20035;-72
2022/02/26 05:34:33;;;;;;;47.53;20.10;;;;;;;-0.63;65.27;99465.44;5093851;28;20076;-71
2022/02/26 05:36:59;;;;;;;32.85;15.82;;;;;;;-0.65;65.32;99467.50;5111030;28;20028;-71
2022/02/26 05:39:24;;;;;;;29.45;14.70;;;;;;;-0.65;65.18;99472.88;5111009;28;20395;-72
2022/02/26 05:41:50;;;;;;;28.20;13.68;;;;;;;-0.67;65.39;99473.09;5109001;28;20028;-71
2022/02/26 05:44:15;;;;;;;34.47;14.65;;;;;;;-0.65;65.66;99473.72;5111081;28;20027;-71
2022/02/26 05:46:40;;;;;;;29.70;13.88;;;;;;;-0.64;65.60;99474.53;5110849;28;20034;-71
2022/02/26 05:49:06;;;;;;;34.13;14.57;;;;;;;-0.61;65.45;99480.34;5111094;28;20024;-71
2022/02/26 05:51:32;;;;;;;39.20;16.90;;;;;;;-0.57;65.58;99485.34;5110209;28;20024;-71
2022/02/26 05:53:57;;;;;;;54.05;22.02;;;;;;;-0.54;65.44;99484.97;5109910;28;20046;-71
2022/02/26 05:56:23;;;;;;;69.53;27.88;;;;;;;-0.48;65.27;99485.03;5112072;28;20030;-72
2022/02/26 05:58:48;;;;;;;78.07;31.42;;;;;;;-0.37;65.57;99480.06;5114505;28;20294;-71
2022/02/26 06:01:13;;;;;;;77.13;30.27;;;;;;;-0.33;65.46;99494.81;5092515;28;20468;-71
2022/02/26 06:03:39;;;;;;;56.78;24.48;;;;;;;-0.20;65.71;99489.50;5114452;28;20027;-71
2022/02/26 06:06:05;;;;;;;51.28;22.17;;;;;;;-0.07;65.45;99496.81;5114523;28;20068;-72
2022/02/26 06:08:31;;;;;;;58.28;26.15;;;;;;;-0.02;65.28;99499.75;5113199;28;20115;-72
2022/02/26 06:10:56;;;;;;;53.42;26.27;;;;;;;0.10;65.70;99500.00;5094589;28;20024;-72
2022/02/26 06:13:22;;;;;;;90.78;36.28;;;;;;;0.11;65.49;99498.97;5113995;28;20383;-72
2022/02/26 06:15:48;;;;;;;133.32;50.58;;;;;;;0.08;65.41;99512.84;5113486;28;20030;-72
2022/02/26 06:18:13;;;;;;;97.88;42.42;;;;;;;0.15;65.05;99512.91;5111596;28;20027;-71
2022/02/26 06:20:39;;;;;;;74.47;35.80;;;;;;;0.16;65.25;99517.25;5093311;28;20563;-72
2022/02/26 06:23:04;;;;;;;68.50;34.00;;;;;;;0.24;65.44;99527.84;5114318;28;20437;-72
2022/02/26 06:25:29;;;;;;;61.28;29.92;;;;;;;0.28;65.35;99531.81;5113102;28;20027;-72
2022/02/26 06:27:55;;;;;;;64.47;29.23;;;;;;;0.40;65.42;99531.22;5112373;28;20043;-72
2022/02/26 06:30:21;;;;;;;50.50;22.90;;;;;;;0.49;65.29;99532.72;5112504;28;20438;-71
2022/02/26 06:32:47;;;;;;;58.55;26.38;;;;;;;0.46;65.37;99530.41;5114911;27;20028;-72
2022/02/26 06:35:13;;;;;;;63.75;29.17;;;;;;;0.54;64.88;99546.44;5113018;28;20510;-72
2022/02/26 06:37:39;;;;;;;62.00;27.38;;;;;;;0.65;65.49;99544.16;5113853;28;20067;-72
2022/02/26 06:40:06;;;;;;;64.05;30.35;;;;;;;0.65;65.36;99547.72;5112787;28;20467;-72
2022/02/26 06:42:31;;;;;;;63.90;30.08;;;;;;;0.74;65.05;99546.47;5112958;28;20043;-72
2022/02/26 06:44:57;;;;;;;65.13;31.45;;;;;;;0.84;64.88;99550.63;5113966;28;20023;-72
2022/02/26 06:47:22;;;;;;;60.30;30.67;;;;;;;0.92;65.29;99552.31;5113801;28;20042;-71
2022/02/26 06:49:48;;;;;;;59.25;30.63;;;;;;;1.01;65.10;99556.50;5112159;28;20051;-71
2022/02/26 06:52:14;;;;;;;60.22;27.88;;;;;;;1.04;65.08;99556.91;5113271;28;20103;-72
2022/02/26 06:54:39;;;;;;;61.25;29.10;;;;;;;1.04;64.63;99562.31;5111967;28;20028;-72
2022/02/26 06:57:05;;;;;;;63.35;29.17;;;;;;;1.00;64.47;99562.94;5113170;28;20043;-71
2022/02/26 06:59:31;;;;;;;63.55;30.40;;;;;;;0.94;64.49;99569.16;5112874;28;20122;-72
2022/02/26 07:01:56;;;;;;;53.47;26.80;;;;;;;0.87;64.40;99569.97;5111505;27;20032;-72
2022/02/26 07:04:22;;;;;;;46.38;21.67;;;;;;;0.75;64.98;99574.31;5111848;28;20368;-72
2022/02/26 07:06:48;;;;;;;38.40;17.27;;;;;;;0.78;65.77;99573.91;5109782;28;20499;-72
2022/02/26 07:09:15;;;;;;;39.20;16.58;;;;;;;0.81;66.44;99578.91;5111797;28;20019;-72
2022/02/26 07:11:41;;;;;;;50.38;19.10;;;;;;;0.81;67.57;99578.06;5111301;27;20464;-72
2022/02/26 07:14:09;;;;;;;78.22;25.65;;;;;;;0.81;67.88;99586.19;5110326;28;20024;-72
2022/02/26 07:16:35;;;;;;;135.80;39.17;;;;;;;0.82;68.33;99580.56;5112054;28;20036;-69
2022/02/26 07:19:00;;;;;;;60.00;20.98;;;;;;;0.86;67.62;99587.22;5114217;27;20110;-69
2022/02/26 07:21:26;;;;;;;31.30;13.70;;;;;;;0.87;68.75;99598.84;5111401;28;20035;-69
2022/02/26 07:23:53;;;;;;;24.60;10.10;;;;;;;0.85;69.24;99598.22;5111919;27;20593;-69
2022/02/26 07:26:19;;;;;;;22.05;10.90;;;;;;;0.85;69.50;99601.75;5112157;28;20035;-70
2022/02/26 07:28:45;;;;;;;41.80;15.05;;;;;;;0.86;69.97;99605.28;5112653;28;20046;-70
2022/02/26 07:31:10;;;;;;;20.25;8.38;;;;;;;0.88;69.62;99601.34;5113805;27;20505;-70
2022/02/26 07:33:36;;;;;;;20.85;9.75;;;;;;;0.87;69.82;99610.50;5111905;28;20019;-70
2022/02/26 07:36:01;;;;;;;18.80;8.10;;;;;;;0.85;70.07;99612.56;5114200;27;20082;-70
2022/02/26 07:38:27;;;;;;;19.83;8.63;;;;;;;0.86;69.80;99618.78;5111281;28;20031;-70
2022/02/26 07:40:52;;;;;;;19.88;10.45;;;;;;;0.85;70.30;99626.06;5110766;28;20535;-71
2022/02/26 07:43:17;;;;;;;21.02;11.98;;;;;;;0.81;70.64;99626.69;5111412;28;20072;-71
2022/02/26 07:45:43;;;;;;;28.60;15.00;;;;;;;0.81;71.19;99634.78;5112351;28;20023;-72
2022/02/26 07:48:08;;;;;;;28.33;12.82;;;;;;;0.81;71.32;99630.22;5112231;28;20114;-72
2022/02/26 07:50:34;;;;;;;25.42;14.07;;;;;;;0.82;71.96;99631.88;5109872;28;20495;-72
2022/02/26 07:53:00;;;;;;;25.70;14.48;;;;;;;0.91;72.33;99627.09;5113977;27;20024;-72
2022/02/26 07:55:26;;;;;;;29.17;14.70;;;;;;;0.95;72.42;99633.78;5111522;27;20437;-72
2022/02/26 07:57:51;;;;;;;29.27;14.65;;;;;;;1.04;71.94;99634.41;5111295;28;20553;-72
2022/02/26 08:00:17;;;;;;;25.88;13.30;;;;;;;1.08;71.89;99638.38;5110867;28;20031;-72
2022/02/26 08:02:44;;;;;;;40.83;17.40;;;;;;;1.16;72.38;99634.66;5110664;28;20020;-73
2022/02/26 08:05:09;;;;;;;38.67;18.05;;;;;;;1.20;71.99;99644.03;5111069;28;20040;-72
2022/02/26 08:07:35;;;;;;;37.20;17.65;;;;;;;1.19;73.15;99639.66;5111295;27;20028;-72
2022/02/26 08:10:01;;;;;;;33.55;17.23;;;;;;;1.22;73.01;99658.16;5111866;27;20031;-72
2022/02/26 08:12:26;;;;;;;83.50;32.17;;;;;;;1.36;73.04;99648.19;5110948;28;20026;-72
2022/02/26 08:14:51;;;;;;;61.35;24.23;;;;;;;1.44;73.15;99650.69;5093686;27;20031;-73
2022/02/26 08:17:17;;;;;;;52.25;23.13;;;;;;;1.53;72.80;99654.03;5109553;28;20035;-72
2022/02/26 08:19:42;;;;;;;39.17;16.63;;;;;;;1.57;72.96;99655.28;5109172;28;20043;-73
2022/02/26 08:22:08;;;;;;;33.78;15.32;;;;;;;1.51;72.91;99656.13;5110820;28;20038;-73
2022/02/26 08:24:35;;;;;;;32.47;14.35;;;;;;;1.56;72.97;99664.44;5112863;28;20035;-72
2022/02/26 08:27:03;;;;;;;30.58;14.00;;;;;;;1.61;72.63;99666.50;5093261;28;20031;-73
2022/02/26 08:29:29;;;;;;;47.15;25.00;;;;;;;1.68;73.12;99661.09;5108284;28;20035;-72
2022/02/26 08:31:55;;;;;;;30.65;15.95;;;;;;;1.72;73.28;99660.47;5110609;28;20357;-73
2022/02/26 08:34:22;;;;;;;21.65;12.15;;;;;;;1.74;72.75;99663.81;5111763;28;20028;-72
2022/02/26 08:36:48;;;;;;;20.60;10.88;;;;;;;1.75;72.78;99664.63;5108574;28;20555;-72
2022/02/26 08:39:14;;;;;;;21.80;10.45;;;;;;;1.78;73.93;99662.34;5110638;28;20110;-73
2022/02/26 08:41:39;;;;;;;16.30;9.20;;;;;;;1.87;73.44;99670.22;5107115;28;20455;-73
2022/02/26 08:44:06;;;;;;;17.30;10.25;;;;;;;1.97;73.49;99675.25;5109452;28;20057;-74
2022/02/26 08:46:31;;;;;;;21.25;11.65;;;;;;;2.03;73.25;99679.81;5110262;28;20032;-73
2022/02/26 08:48:57;;;;;;;23.33;12.23;;;;;;;2.09;74.30;99684.38;5105965;28;20085;-73
2022/02/26 08:51:23;;;;;;;29.48;13.23;;;;;;;2.10;73.61;99690.63;5110746;28;20115;-74
2022/02/26 08:53:48;;;;;;;49.75;17.30;;;;;;;2.23;74.29;99691.44;5108142;28;20045;-74
2022/02/26 08:56:14;;;;;;;34.60;14.27;;;;;;;2.37;73.78;99688.72;5107523;28;20039;-73
2022/02/26 08:58:39;;;;;;;25.30;12.18;;;;;;;2.45;74.22;99698.47;5102240;28;20093;-73
2022/02/26 09:01:05;;;;;;;26.00;13.45;;;;;;;2.56;73.15;99686.16;5112253;28;20046;-73
2022/02/26 09:03:30;;;;;;;39.22;15.93;;;;;;;2.63;73.21;99695.94;5087609;28;20034;-73
2022/02/26 09:05:56;;;;;;;31.95;13.82;;;;;;;2.60;72.85;99698.22;5106168;28;20111;-74
2022/02/26 09:08:21;;;;;;;23.73;12.48;;;;;;;2.62;73.64;99694.28;5107538;28;20028;-73
2022/02/26 09:10:46;;;;;;;33.90;15.93;;;;;;;2.66;73.55;99700.91;5107088;28;20123;-73
2022/02/26 09:13:12;;;;;;;26.60;14.70;;;;;;;2.64;73.37;99702.16;5109802;28;20105;-74
2022/02/26 09:15:38;;;;;;;29.80;14.75;;;;;;;2.62;72.93;99696.13;5110591;28;20043;-73
2022/02/26 09:18:03;;;;;;;29.05;14.65;;;;;;;2.60;72.83;99707.19;5108974;28;20043;-73
2022/02/26 09:20:29;;;;;;;33.90;15.65;;;;;;;2.63;73.75;99701.34;5108088;28;20032;-72
2022/02/26 09:22:54;;;;;;;26.50;13.52;;;;;;;2.72;73.65;99710.06;5095124;28;20023;-73
2022/02/26 09:25:19;;;;;;;25.52;12.73;;;;;;;2.87;73.75;99707.09;5110924;28;20050;-72
2022/02/26 09:27:45;;;;;;;29.05;14.65;;;;;;;3.04;73.34;99710.13;5110201;28;20096;-72
2022/02/26 09:30:12;;;;;;;28.80;14.38;;;;;;;3.20;73.40;99714.22;5110802;28;20027;-70
2022/02/26 09:32:37;;;;;;;31.67;16.27;;;;;;;3.27;73.58;99712.31;5115024;28;20031;-70
2022/02/26 09:35:05;;;;;;;37.40;19.27;;;;;;;3.28;73.10;99719.41;5114074;28;20020;-70
2022/02/26 09:37:31;;;;;;;36.67;18.38;;;;;;;3.37;72.51;99719.97;5115174;27;20036;-69
2022/02/26 09:39:59;;;;;;;41.78;20.48;;;;;;;3.41;72.99;99717.66;5111905;27;20104;-71
2022/02/26 09:42:27;;;;;;;32.15;17.20;;;;;;;3.48;72.25;99721.16;5112452;27;20494;-70
2022/02/26 09:44:52;;;;;;;49.78;24.67;;;;;;;3.41;71.23;99720.38;5111264;28;20039;-73
2022/02/26 09:47:17;;;;;;;33.97;18.75;;;;;;;3.44;71.70;99730.78;5111627;27;20031;-74
2022/02/26 09:49:43;;;;;;;40.90;20.92;;;;;;;3.60;72.05;99723.16;5111877;27;20041;-74
2022/02/26 09:52:10;;;;;;;32.60;16.92;;;;;;;3.79;72.36;99740.34;5113388;27;20395;-74
2022/02/26 09:54:35;;;;;;;39.03;20.23;;;;;;;3.91;71.71;99733.19;5113324;28;20099;-73
2022/02/26 09:57:01;;;;;;;25.35;13.70;;;;;;;3.96;71.74;99735.22;5111125;28;20150;-74
2022/02/26 09:59:27;;;;;;;27.10;14.57;;;;;;;4.00;71.08;99739.16;5112642;28;20250;-75
2022/02/26 10:02:00;;;;;;;31.77;16.10;;;;;;;3.94;71.26;99740.88;5112932;28;20027;-76
2022/02/26 10:04:26;;;;;;;27.27;14.93;;;;;;;3.82;70.42;99743.47;5110799;28;20571;-72
2022/02/26 10:07:14;;;;;;;23.50;14.20;;;;;;;3.80;71.03;99737.44;5112538;27;20031;-70
2022/02/26 10:09:42;;;;;;;19.83;11.98;;;;;;;3.77;70.91;99742.47;5106451;28;20055;-71
2022/02/26 10:12:20;;;;;;;47.00;26.52;;;;;;;3.83;70.97;99747.84;5093891;27;20412;-72
2022/02/26 10:14:47;;;;;;;24.33;15.57;;;;;;;3.96;70.28;99751.50;5112224;27;20023;-71
2022/02/26 10:17:26;;;;;;;98.97;45.45;;;;;;;3.95;70.52;99758.81;5117641;27;20023;-70
2022/02/26 10:20:02;;;;;;;172.77;82.00;;;;;;;3.91;70.54;99760.31;5111051;27;20027;-71
2022/02/26 10:22:29;;;;;;;34.67;20.90;;;;;;;3.82;70.23;99751.63;5092957;28;20560;-70
2022/02/26 10:24:54;;;;;;;37.88;22.17;;;;;;;3.79;69.87;99756.63;5111292;27;20031;-70
2022/02/26 10:27:25;;;;;;;26.92;16.33;;;;;;;3.88;69.89;99764.28;5109222;27;20100;-71
2022/02/26 10:29:52;;;;;;;19.10;11.23;;;;;;;4.00;70.54;99772.56;5109854;28;20041;-72
2022/02/26 10:32:20;;;;;;;15.25;9.60;;;;;;;4.07;70.24;99764.38;5110924;28;20032;-71
2022/02/26 10:34:46;;;;;;;12.65;8.85;;;;;;;4.13;69.67;99763.50;5111007;28;20024;-74
2022/02/26 10:37:18;;;;;;;18.95;10.82;;;;;;;4.14;69.06;99759.72;5111066;28;20038;-75
2022/02/26 10:39:48;;;;;;;20.15;13.15;;;;;;;4.15;69.41;99765.97;5109966;28;20027;-75
2022/02/26 10:42:19;;;;;;;29.17;18.17;;;;;;;4.26;69.88;99767.16;5091341;28;20114;-75
2022/02/26 10:44:45;;;;;;;24.17;13.35;;;;;;;4.41;69.93;99769.53;5114035;27;20026;-73
2022/02/26 10:47:13;;;;;;;17.40;10.70;;;;;;;4.51;69.70;99769.81;5108517;28;20023;-74
2022/02/26 10:49:48;;;;;;;20.60;14.32;;;;;;;4.57;69.28;99777.09;5111546;27;20493;-75
2022/02/26 10:52:16;;;;;;;21.92;14.13;;;;;;;4.65;69.32;99786.84;5112296;27;20023;-74
2022/02/26 10:54:49;;;;;;;21.08;13.15;;;;;;;4.69;69.16;99785.31;5111754;28;20024;-75
2022/02/26 10:57:15;;;;;;;19.17;12.70;;;;;;;4.73;68.63;99791.97;5111149;28;20062;-75
2022/02/26 10:59:42;;;;;;;35.83;19.55;;;;;;;4.75;68.21;99791.75;5111362;28;20019;-74
2022/02/26 11:02:21;;;;;;;23.77;14.90;;;;;;;4.79;68.50;99794.84;5110828;28;20019;-75
2022/02/26 11:04:47;;;;;;;21.35;12.60;;;;;;;4.71;68.16;99785.94;5115680;27;20550;-74
2022/02/26 11:07:13;;;;;;;24.13;14.38;;;;;;;4.70;68.67;99794.31;5114762;27;20030;-74
2022/02/26 11:09:40;;;;;;;26.13;15.52;;;;;;;4.74;68.73;99798.25;5112070;28;20019;-74
2022/02/26 11:12:07;;;;;;;25.27;14.40;;;;;;;4.74;68.21;99795.53;5111794;28;20049;-73
2022/02/26 11:14:35;;;;;;;28.10;16.05;;;;;;;4.82;68.46;99794.41;5112962;27;20023;-75
2022/02/26 11:17:03;;;;;;;34.72;18.00;;;;;;;4.92;68.32;99794.72;5114254;27;20467;-75